createdAt,value
2019-05-12T00:01:48.242Z,6.30
2019-05-12T00:04:18.931Z,6.12
2019-05-12T00:06:48.445Z,6.78
2019-05-12T00:09:18.825Z,6.50
2019-05-12T00:11:48.541Z,6.37
2019-05-12T00:16:49.156Z,6.70
2019-05-12T00:22:25.307Z,6.65
2019-05-12T00:24:54.389Z,6.90
2019-05-12T00:27:24.670Z,7.33
2019-05-12T00:32:22.311Z,7.00
2019-05-12T00:34:51.480Z,6.58
2019-05-12T00:37:20.425Z,6.80
2019-05-12T00:39:49.597Z,6.25
2019-05-12T00:42:18.625Z,6.87
2019-05-12T00:44:47.904Z,6.45
2019-05-12T00:47:18.769Z,6.65
2019-05-12T00:49:48.913Z,7.00
2019-05-12T00:52:19.694Z,7.83
2019-05-12T00:54:48.959Z,7.70
2019-05-12T00:57:18.246Z,7.78
2019-05-12T00:59:47.896Z,7.37
2019-05-12T01:02:18.296Z,7.35
2019-05-12T01:04:48.706Z,7.92
2019-05-12T01:07:18.342Z,7.53
2019-05-12T01:09:49.146Z,8.23
2019-05-12T01:12:18.422Z,9.15
2019-05-12T01:14:47.888Z,8.55
2019-05-12T01:17:17.730Z,8.60
2019-05-12T01:19:48.743Z,9.00
2019-05-12T01:22:18.689Z,9.55
2019-05-12T01:24:48.298Z,9.95
2019-05-12T01:29:48.085Z,10.25
2019-05-12T01:32:29.500Z,11.40
2019-05-12T01:34:59.482Z,11.00
2019-05-12T01:37:29.978Z,11.63
2019-05-12T01:40:00.056Z,11.22
2019-05-12T01:42:29.390Z,13.03
2019-05-12T01:44:58.550Z,12.47
2019-05-12T01:49:58.217Z,12.80
2019-05-12T01:52:28.606Z,13.45
2019-05-12T01:57:28.901Z,14.13
2019-05-12T01:59:59.075Z,15.75
2019-05-12T02:02:28.596Z,14.85
2019-05-12T02:07:49.459Z,14.85
2019-05-12T02:10:19.785Z,15.98
2019-05-12T02:12:49.220Z,16.65
2019-05-12T02:15:19.872Z,17.62
2019-05-12T02:17:48.677Z,17.80
2019-05-12T02:20:18.805Z,18.50
2019-05-12T02:22:48.891Z,17.42
2019-05-12T02:25:18.932Z,17.65
2019-05-12T02:27:47.906Z,17.92
2019-05-12T02:30:20.260Z,17.80
2019-05-12T02:32:57.311Z,18.55
2019-05-12T02:35:20.415Z,17.55
2019-05-12T02:37:49.423Z,18.62
2019-05-12T02:40:20.415Z,19.02
2019-05-12T02:42:49.559Z,18.48
2019-05-12T02:45:18.747Z,17.65
2019-05-12T02:47:47.697Z,17.75
2019-05-12T02:53:09.400Z,17.20
2019-05-12T02:55:40.587Z,17.73
2019-05-12T02:58:15.156Z,17.27
2019-05-12T03:00:45.964Z,17.70
2019-05-12T03:03:19.065Z,18.50
2019-05-12T03:05:54.728Z,18.55
2019-05-12T03:08:25.591Z,18.30
2019-05-12T03:10:56.614Z,18.60
2019-05-12T03:13:25.664Z,18.37
2019-05-12T03:18:25.275Z,18.85
2019-05-12T03:23:24.976Z,18.73
2019-05-12T03:25:55.168Z,18.40
2019-05-12T03:28:25.575Z,19.07
2019-05-12T03:30:57.541Z,19.37
2019-05-12T03:33:33.325Z,18.82
2019-05-12T03:36:00.937Z,18.35
2019-05-12T03:38:27.947Z,19.00
2019-05-12T03:40:57.067Z,19.42
2019-05-12T03:43:26.060Z,19.52
2019-05-12T03:45:55.834Z,19.25
2019-05-12T03:48:25.382Z,19.87
2019-05-12T03:50:54.554Z,19.00
2019-05-12T03:53:24.685Z,19.87
2019-05-12T03:55:55.296Z,19.73
2019-05-12T03:58:25.561Z,18.73
2019-05-12T04:00:55.383Z,19.15
2019-05-12T04:03:24.843Z,20.00
2019-05-12T04:05:55.339Z,19.77
2019-05-12T04:08:24.803Z,19.25
2019-05-12T04:10:57.656Z,20.52
2019-05-12T04:13:26.861Z,19.85
2019-05-12T04:15:55.960Z,20.60
2019-05-12T04:18:30.469Z,20.27
2019-05-12T04:20:59.068Z,20.80
2019-05-12T04:23:27.908Z,21.57
2019-05-12T04:26:07.377Z,20.32
2019-05-12T04:28:27.555Z,21.48
2019-05-12T04:30:56.736Z,21.02
2019-05-12T04:35:55.496Z,20.90
2019-05-12T04:40:55.267Z,20.23
2019-05-12T04:43:25.455Z,20.12
2019-05-12T04:45:54.981Z,20.08
2019-05-12T04:48:25.834Z,18.70
2019-05-12T04:50:55.023Z,20.12
2019-05-12T04:53:25.208Z,19.65
2019-05-12T04:56:10.613Z,18.82
2019-05-12T04:58:30.020Z,19.05
2019-05-12T05:00:58.925Z,18.50
2019-05-12T05:03:27.937Z,18.85
2019-05-12T05:05:56.949Z,18.45
2019-05-12T05:08:26.217Z,18.95
2019-05-12T05:10:56.972Z,18.10
2019-05-12T05:13:25.964Z,18.35
2019-05-12T05:15:55.084Z,16.97
2019-05-12T05:18:24.729Z,17.02
2019-05-12T05:23:24.112Z,16.05
2019-05-12T05:25:53.934Z,16.42
2019-05-12T05:28:23.618Z,16.95
2019-05-12T05:30:53.494Z,16.75
2019-05-12T05:33:23.853Z,16.05
2019-05-12T05:35:54.304Z,15.93
2019-05-12T05:38:24.712Z,16.65
2019-05-12T05:43:24.187Z,16.40
2019-05-12T05:46:01.819Z,16.02
2019-05-12T05:48:24.591Z,15.35
2019-05-12T05:50:54.018Z,15.68
2019-05-12T05:53:24.275Z,15.48
2019-05-12T05:55:58.621Z,15.55
2019-05-12T05:58:26.162Z,14.47
2019-05-12T06:01:02.880Z,14.83
2019-05-12T06:03:28.124Z,15.00
2019-05-12T06:06:01.519Z,13.80
2019-05-12T06:08:28.468Z,13.80
2019-05-12T06:10:57.616Z,13.83
2019-05-12T06:15:57.448Z,13.18
2019-05-12T06:18:29.056Z,13.40
2019-05-12T06:20:59.023Z,12.98
2019-05-12T06:23:28.983Z,12.90
2019-05-12T06:25:59.513Z,13.30
2019-05-12T06:28:31.048Z,12.90
2019-05-12T06:30:59.993Z,13.15
2019-05-12T06:33:31.448Z,12.82
2019-05-12T06:36:03.730Z,12.75
2019-05-12T06:38:37.146Z,13.38
2019-05-12T06:41:04.751Z,11.73
2019-05-12T06:46:04.911Z,12.73
2019-05-12T06:48:34.116Z,12.13
2019-05-12T06:51:23.658Z,11.33
2019-05-12T06:53:53.535Z,10.05
2019-05-12T06:56:23.629Z,10.55
2019-05-12T07:01:24.171Z,10.90
2019-05-12T07:03:53.680Z,10.93
2019-05-12T07:06:24.745Z,11.03
2019-05-12T07:09:03.444Z,10.50
2019-05-12T07:11:24.969Z,10.48
2019-05-12T07:14:04.029Z,9.65
2019-05-12T07:16:30.077Z,9.05
2019-05-12T07:21:27.294Z,7.60
2019-05-12T07:24:00.370Z,6.03
2019-05-12T07:26:27.120Z,6.80
2019-05-12T07:28:56.577Z,6.92
2019-05-12T07:31:26.068Z,5.92
2019-05-12T07:33:55.596Z,6.08
2019-05-12T07:36:24.943Z,5.83
2019-05-12T07:39:03.790Z,6.42
2019-05-12T07:41:30.753Z,5.72
2019-05-12T07:46:31.477Z,6.50
2019-05-12T07:49:00.579Z,5.45
2019-05-12T07:51:30.517Z,5.80
2019-05-12T07:54:01.054Z,5.75
2019-05-12T07:56:32.697Z,5.30
2019-05-12T07:59:04.209Z,4.60
2019-05-12T08:01:35.835Z,5.08
2019-05-12T08:04:04.539Z,4.75
2019-05-12T08:09:08.112Z,4.62
2019-05-12T08:11:39.005Z,4.72
2019-05-12T08:14:13.754Z,4.75
2019-05-12T08:16:41.159Z,5.00
2019-05-12T08:19:14.991Z,4.50
2019-05-12T08:21:43.908Z,3.75
2019-05-12T08:24:14.323Z,3.90
2019-05-12T08:26:49.598Z,4.08
2019-05-12T08:29:21.435Z,4.00
2019-05-12T08:31:48.717Z,3.92
2019-05-12T08:36:53.045Z,3.55
2019-05-12T08:39:22.739Z,3.60
2019-05-12T08:41:50.305Z,3.35
2019-05-12T08:44:24.606Z,4.00
2019-05-12T08:46:56.295Z,3.65
2019-05-12T08:49:23.625Z,3.77
2019-05-12T08:51:57.858Z,3.72
2019-05-12T08:54:24.133Z,3.55
2019-05-12T08:56:57.043Z,3.30
2019-05-12T08:59:27.302Z,3.60
2019-05-12T09:02:00.125Z,3.70
2019-05-12T09:04:26.404Z,3.55
2019-05-12T09:06:59.720Z,3.50
2019-05-12T09:09:26.589Z,3.75
2019-05-12T09:11:55.931Z,3.72
2019-05-12T09:14:25.846Z,3.60
2019-05-12T09:17:02.729Z,3.15
2019-05-12T09:19:27.191Z,3.87
2019-05-12T09:21:56.521Z,3.60
2019-05-12T09:24:27.380Z,3.33
2019-05-12T09:26:58.967Z,3.50
2019-05-12T09:31:59.183Z,3.80
2019-05-12T09:34:27.616Z,3.72
2019-05-12T09:36:59.528Z,3.30
2019-05-12T09:39:27.753Z,3.75
2019-05-12T09:41:57.059Z,3.75
2019-05-12T09:44:30.376Z,3.92
2019-05-12T09:46:57.762Z,3.33
2019-05-12T09:51:57.126Z,3.47
2019-05-12T09:54:35.436Z,3.50
2019-05-12T09:56:59.658Z,3.10
2019-05-12T09:59:29.159Z,3.22
2019-05-12T10:01:58.520Z,3.30
2019-05-12T10:04:27.762Z,3.80
2019-05-12T10:09:24.998Z,3.17
2019-05-12T10:12:00.534Z,3.95
2019-05-12T10:14:25.537Z,3.12
2019-05-12T10:16:54.820Z,3.30
2019-05-12T10:19:24.096Z,3.52
2019-05-12T10:21:55.281Z,3.42
2019-05-12T10:24:25.149Z,3.35
2019-05-12T10:26:54.774Z,3.42
2019-05-12T10:31:55.933Z,3.55
2019-05-12T10:34:29.281Z,3.58
2019-05-12T10:36:59.671Z,3.25
2019-05-12T10:39:33.482Z,3.47
2019-05-12T10:42:03.751Z,3.37
2019-05-12T10:47:04.916Z,3.27
2019-05-12T10:49:35.142Z,2.95
2019-05-12T10:52:04.444Z,3.22
2019-05-12T10:54:34.301Z,3.92
2019-05-12T10:57:05.049Z,3.58
2019-05-12T10:59:38.882Z,4.28
2019-05-12T11:02:05.648Z,3.70
2019-05-12T11:04:38.985Z,3.80
2019-05-12T11:07:05.837Z,3.72
2019-05-12T11:09:35.926Z,5.15
2019-05-12T11:12:05.023Z,4.62
2019-05-12T11:14:34.550Z,3.55
2019-05-12T11:17:07.715Z,4.90
2019-05-12T11:19:40.637Z,4.70
2019-05-12T11:22:07.881Z,4.45
2019-05-12T11:24:37.095Z,4.40
2019-05-12T11:27:06.249Z,4.10
2019-05-12T11:29:45.664Z,3.77
2019-05-12T11:32:06.244Z,4.20
2019-05-12T11:34:35.757Z,4.50
2019-05-12T11:37:04.956Z,4.28
2019-05-12T11:39:37.100Z,4.25
2019-05-12T11:42:04.965Z,3.90
2019-05-12T11:44:34.065Z,3.62
2019-05-12T11:47:03.728Z,3.90
2019-05-12T11:49:33.603Z,3.42
2019-05-12T11:54:33.577Z,2.55
2019-05-12T11:57:03.065Z,2.70
2019-05-12T11:59:34.005Z,3.12
2019-05-12T12:02:03.302Z,2.95
2019-05-12T12:04:57.955Z,2.85
2019-05-12T12:07:26.894Z,2.65
2019-05-12T12:09:59.294Z,2.50
2019-05-12T12:17:30.902Z,2.75
2019-05-12T12:19:57.969Z,2.90
2019-05-12T12:22:29.880Z,3.95
2019-05-12T12:25:04.699Z,3.70
2019-05-12T12:27:28.845Z,3.40
2019-05-12T12:29:57.718Z,6.33
2019-05-12T12:34:54.788Z,2.58
2019-05-12T12:37:24.424Z,1.90
2019-05-12T12:42:24.211Z,2.98
2019-05-12T12:44:58.147Z,2.62
2019-05-12T12:47:24.761Z,2.00
2019-05-12T12:52:24.377Z,2.10
2019-05-12T12:54:54.314Z,2.50
2019-05-12T12:57:29.853Z,2.58
2019-05-12T12:59:55.483Z,2.12
2019-05-12T13:02:24.886Z,2.20
2019-05-12T13:04:53.987Z,2.42
2019-05-12T13:07:24.172Z,2.95
2019-05-12T13:09:55.013Z,2.12
2019-05-12T13:12:23.950Z,2.22
2019-05-12T13:14:53.276Z,2.00
2019-05-12T13:17:29.055Z,2.15
2019-05-12T13:19:54.716Z,2.20
2019-05-12T13:22:24.613Z,2.37
2019-05-12T13:27:28.973Z,2.25
2019-05-12T13:29:55.574Z,2.30
2019-05-12T13:34:54.985Z,2.25
2019-05-12T13:37:24.066Z,2.10
2019-05-12T13:39:58.526Z,1.95
2019-05-12T13:42:24.211Z,1.60
2019-05-12T13:44:53.445Z,2.00
2019-05-12T13:47:22.573Z,1.70
2019-05-12T13:52:26.299Z,1.60
2019-05-12T13:54:52.151Z,1.37
2019-05-12T13:57:23.475Z,1.70
2019-05-12T13:59:53.768Z,1.22
2019-05-12T14:02:23.558Z,1.52
2019-05-12T14:04:53.618Z,1.35
2019-05-12T14:07:23.661Z,1.75
2019-05-12T14:12:21.106Z,1.50
2019-05-12T14:14:50.536Z,1.50
2019-05-12T14:17:19.985Z,1.52
2019-05-12T14:19:48.971Z,1.37
2019-05-12T14:22:26.228Z,1.30
2019-05-12T14:24:49.480Z,1.10
2019-05-12T14:27:18.994Z,1.12
2019-05-12T14:32:19.200Z,1.40
2019-05-12T14:34:58.683Z,1.40
2019-05-12T14:37:24.325Z,1.30
2019-05-12T14:39:53.765Z,1.20
2019-05-12T14:42:26.117Z,1.12
2019-05-12T14:44:54.147Z,1.07
2019-05-12T14:47:25.755Z,0.95
2019-05-12T14:49:55.101Z,1.22
2019-05-12T14:52:24.175Z,1.60
2019-05-12T14:54:54.184Z,1.00
2019-05-12T14:57:29.296Z,1.00
2019-05-12T14:59:57.979Z,0.95
2019-05-12T15:02:29.379Z,0.80
2019-05-12T15:05:00.230Z,0.98
2019-05-12T15:07:30.457Z,0.90
2019-05-12T15:10:02.284Z,0.80
2019-05-12T15:14:59.534Z,0.85
2019-05-12T15:20:00.216Z,1.02
2019-05-12T15:22:28.100Z,1.30
2019-05-12T15:24:59.000Z,1.07
2019-05-12T15:27:42.088Z,0.88
2019-05-12T15:29:59.914Z,1.10
2019-05-12T15:32:29.624Z,1.10
2019-05-12T15:37:29.027Z,1.45
2019-05-12T15:40:06.706Z,1.57
2019-05-12T15:45:11.146Z,1.20
2019-05-12T15:47:37.311Z,1.00
2019-05-12T15:50:07.911Z,0.78
2019-05-12T15:52:42.231Z,1.02
2019-05-12T15:55:09.294Z,0.70
2019-05-12T15:57:38.636Z,1.07
2019-05-12T16:00:10.303Z,1.10
2019-05-12T16:02:39.460Z,1.15
2019-05-12T16:05:08.901Z,0.90
2019-05-12T16:07:39.589Z,1.00
2019-05-12T16:10:11.513Z,0.95
2019-05-12T16:12:42.925Z,1.07
2019-05-12T16:15:17.048Z,0.90
2019-05-12T16:17:44.113Z,1.12
2019-05-12T16:20:14.470Z,0.80
2019-05-12T16:25:15.448Z,1.10
2019-05-12T16:27:45.142Z,1.05
2019-05-12T16:30:20.229Z,1.20
2019-05-12T16:32:48.520Z,0.98
2019-05-12T16:35:25.552Z,1.02
2019-05-12T16:37:50.139Z,0.90
2019-05-12T16:40:19.671Z,0.80
2019-05-12T16:42:53.577Z,1.20
2019-05-12T16:45:20.248Z,1.10
2019-05-12T16:47:50.076Z,1.10
2019-05-12T16:50:25.404Z,1.50
2019-05-12T16:52:50.777Z,0.80
2019-05-12T16:55:20.892Z,1.30
2019-05-12T16:57:52.939Z,1.62
2019-05-12T17:00:24.220Z,1.17
2019-05-12T17:02:57.779Z,1.20
2019-05-12T17:05:25.554Z,1.22
2019-05-12T17:07:55.813Z,1.30
2019-05-12T17:12:54.463Z,1.47
2019-05-12T17:15:23.717Z,1.70
2019-05-12T17:20:23.006Z,1.00
2019-05-12T17:22:55.185Z,1.40
2019-05-12T17:25:24.586Z,1.10
2019-05-12T17:30:23.909Z,1.17
2019-05-12T17:33:00.631Z,1.40
2019-05-12T17:35:31.459Z,1.27
2019-05-12T17:37:57.034Z,1.15
2019-05-12T17:40:26.504Z,1.30
2019-05-12T17:42:59.829Z,1.20
2019-05-12T17:45:33.747Z,1.27
2019-05-12T17:48:07.436Z,1.45
2019-05-12T17:50:34.716Z,1.25
2019-05-12T17:58:04.122Z,1.10
2019-05-12T18:00:33.628Z,1.20
2019-05-12T18:03:15.695Z,1.30
2019-05-12T18:05:34.073Z,1.25
2019-05-12T18:08:04.309Z,1.40
2019-05-12T18:10:37.852Z,1.20
2019-05-12T18:15:37.709Z,1.50
2019-05-12T18:18:04.202Z,1.55
2019-05-12T18:20:40.022Z,1.65
2019-05-12T18:23:05.695Z,1.17
2019-05-12T18:28:06.303Z,1.52
2019-05-12T18:30:35.166Z,1.30
2019-05-12T18:33:09.136Z,1.72
2019-05-12T18:35:36.445Z,1.10
2019-05-12T18:38:07.913Z,1.30
2019-05-12T18:40:36.582Z,1.40
2019-05-12T18:43:06.790Z,1.67
2019-05-12T18:45:35.778Z,1.55
2019-05-12T18:48:08.303Z,1.20
2019-05-12T18:50:36.738Z,1.30
2019-05-12T18:53:05.747Z,1.15
2019-05-12T18:58:05.490Z,1.40
2019-05-12T19:00:35.553Z,1.20
2019-05-12T19:03:08.694Z,1.10
2019-05-12T19:05:36.010Z,1.00
2019-05-12T19:08:05.585Z,1.17
2019-05-12T19:10:38.562Z,1.30
2019-05-12T19:13:06.749Z,1.20
2019-05-12T19:15:36.146Z,1.35
2019-05-12T19:18:05.772Z,1.20
2019-05-12T19:20:36.291Z,1.57
2019-05-12T19:23:07.331Z,1.30
2019-05-12T19:25:40.801Z,1.35
2019-05-12T19:29:06.203Z,1.95
2019-05-12T19:31:36.687Z,1.55
2019-05-12T19:44:38.629Z,1.57
2019-05-12T19:47:21.292Z,1.45
2019-05-12T19:49:50.711Z,1.35
2019-05-12T19:52:20.993Z,1.82
2019-05-12T19:54:51.060Z,1.70
2019-05-12T19:57:21.946Z,1.85
2019-05-12T19:59:55.818Z,1.60
2019-05-12T20:02:24.159Z,2.00
2019-05-12T20:04:56.597Z,1.98
2019-05-12T20:07:24.609Z,1.80
2019-05-12T20:13:35.878Z,2.08
2019-05-12T20:16:04.720Z,1.77
2019-05-12T20:21:04.592Z,1.50
2019-05-12T20:23:33.803Z,1.50
2019-05-12T20:26:03.972Z,1.40
2019-05-12T20:28:34.688Z,1.90
2019-05-12T20:31:06.122Z,2.62
2019-05-12T20:33:35.476Z,2.30
2019-05-12T20:36:04.597Z,1.70
2019-05-12T20:38:36.232Z,1.85
2019-05-12T20:41:04.805Z,2.08
2019-05-12T20:43:38.097Z,2.00
2019-05-12T20:46:13.035Z,2.35
2019-05-12T20:48:40.309Z,1.90
2019-05-12T20:51:15.313Z,2.70
2019-05-12T20:53:40.824Z,1.87
2019-05-12T20:56:12.220Z,2.52
2019-05-12T20:58:45.813Z,2.05
2019-05-12T21:03:46.246Z,1.70
2019-05-12T21:06:16.632Z,1.27
2019-05-12T21:08:53.315Z,1.30
2019-05-12T21:11:17.520Z,1.25
2019-05-12T21:13:47.186Z,1.40
2019-05-12T21:16:20.282Z,1.15
2019-05-12T21:18:56.156Z,1.22
2019-05-12T21:21:27.271Z,1.20
2019-05-12T21:26:28.555Z,1.60
2019-05-12T21:28:54.725Z,1.47
2019-05-12T21:33:54.140Z,1.20
2019-05-12T21:36:26.792Z,1.30
2019-05-12T21:38:59.617Z,1.30
2019-05-12T21:41:26.302Z,1.27
2019-05-12T21:44:00.162Z,1.10
2019-05-12T21:46:26.523Z,1.25
2019-05-12T21:48:56.232Z,1.45
2019-05-12T21:51:26.546Z,1.40
2019-05-12T21:53:57.646Z,0.90
2019-05-12T21:56:26.753Z,0.90
2019-05-12T22:01:26.305Z,1.27
2019-05-12T22:04:02.060Z,1.10
2019-05-12T22:06:26.466Z,0.95
2019-05-12T22:09:01.596Z,1.17
2019-05-12T22:11:34.654Z,1.12
2019-05-12T22:14:05.128Z,1.17
2019-05-12T22:16:43.253Z,1.07
2019-05-12T22:19:07.908Z,0.80
2019-05-12T22:21:47.566Z,1.20
2019-05-12T22:24:10.620Z,1.05
2019-05-12T22:26:43.480Z,1.12
2019-05-12T22:29:13.384Z,1.10
2019-05-12T22:31:48.228Z,1.00
2019-05-12T22:37:06.139Z,0.90
2019-05-12T22:39:37.294Z,1.05
2019-05-12T22:42:11.618Z,1.07
2019-05-12T22:44:39.085Z,1.12
2019-05-12T22:47:12.700Z,1.02
2019-05-12T22:49:40.494Z,0.90
2019-05-12T22:52:09.586Z,1.10
2019-05-12T22:57:09.136Z,1.00
2019-05-12T22:59:40.631Z,1.10
2019-05-12T23:02:09.439Z,1.05
2019-05-12T23:04:40.601Z,1.27
2019-05-12T23:07:10.021Z,0.90
2019-05-12T23:09:39.443Z,1.40
2019-05-12T23:12:09.782Z,1.10
2019-05-12T23:14:39.513Z,1.10
2019-05-12T23:17:08.410Z,1.17
2019-05-12T23:22:35.132Z,1.00
2019-05-12T23:25:03.828Z,1.00
2019-05-12T23:27:33.372Z,0.82
2019-05-12T23:30:10.941Z,0.95
2019-05-12T23:32:34.606Z,1.00
2019-05-12T23:37:36.162Z,1.10
2019-05-12T23:40:04.410Z,1.00
2019-05-12T23:42:34.338Z,1.12
2019-05-12T23:45:03.849Z,1.02
2019-05-12T23:47:34.305Z,1.40
2019-05-12T23:50:04.299Z,0.93
2019-05-12T23:52:34.603Z,1.12
2019-05-12T23:57:33.812Z,1.10
